Duck Valley, Nevada
Current Conditions -  °F | °C
As of 10:13 AM on Friday 19 Dec 2014 (Local Time) from KMUO Reporting Station
Light Rain Light Rain  
Wind Chill: 35°   Ceiling: 1600
Heat Index: 41°   Visibility: 4mi
Dew Point: 34°   Wind: 10mph
Humidity: 76%   Direction: 90°E
Pressure: 30.08"   Gusts: NA
Location:  41.9458°N, 116.094°W
Report Text: KMUO 191813Z AUTO 09009KT 4SM -RA SCT003 SCT007 BKN016 OVC022 05/01 A3008 RMK AO2 CIG 007V016
Loading
Personal Weather Stations






























Interactive Weather Map New forecast layout! Learn more

10-Day Weather Forecast

Advertisements
Track Severe Weather on mobile